AAL323 KLAX-KSFO
Flight info
| Callsign | AAL323 |
|---|---|
| Flight time | 0h 56m |
| Altitude | 36000 |
| Route | SUMMR2 STOKD SERFR SERFR4 |
| Aircraft | A321/M-SDE3FGHIRWY/LB1 |
Departure
| Time | 2026-04-25 05:14 |
|---|---|
| Airport | Los Angeles International Airport (KLAX) |
Arrival
| Time | 2026-04-25 06:11 |
|---|---|
| Airport | San Francisco International Airport (KSFO) |
| Time | Latitude | Longitude | Altitude | Speed | Heading |
|---|---|---|---|---|---|
| 2026-04-25 04:22 | 33.94047 | -118.40740 | 93 ft | 0 kts | 99° |
| 2026-04-25 04:31 | 33.94047 | -118.40739 | 93 ft | 0 kts | 99° |
| 2026-04-25 04:33 | 33.94047 | -118.40740 | 93 ft | 0 kts | 99° |
| 2026-04-25 04:53 | 33.94051 | -118.40767 | 92 ft | 4 kts | 99° |
| 2026-04-25 04:53 | 33.94055 | -118.40792 | 91 ft | 4 kts | 100° |
| 2026-04-25 04:53 | 33.94061 | -118.40822 | 94 ft | 4 kts | 128° |
| 2026-04-25 04:54 | 33.94073 | -118.40833 | 90 ft | 3 kts | 173° |
| 2026-04-25 04:54 | 33.94048 | -118.40829 | 92 ft | 4 kts | 173° |
| 2026-04-25 04:54 | 33.94021 | -118.40825 | 94 ft | 4 kts | 173° |
| 2026-04-25 04:54 | 33.93996 | -118.40822 | 93 ft | 1 kts | 173° |
| 2026-04-25 04:55 | 33.93995 | -118.40821 | 93 ft | 3 kts | 173° |
| 2026-04-25 04:59 | 33.93982 | -118.40820 | 93 ft | 7 kts | 173° |
| 2026-04-25 05:00 | 33.93930 | -118.40812 | 95 ft | 8 kts | 173° |
| 2026-04-25 05:00 | 33.93872 | -118.40761 | 94 ft | 7 kts | 139° |
| 2026-04-25 05:00 | 33.93856 | -118.40748 | 94 ft | 2 kts | 147° |
| 2026-04-25 05:00 | 33.93844 | -118.40742 | 95 ft | 2 kts | 153° |
| 2026-04-25 05:01 | 33.93829 | -118.40729 | 96 ft | 4 kts | 141° |
| 2026-04-25 05:01 | 33.93810 | -118.40686 | 95 ft | 8 kts | 103° |
| 2026-04-25 05:01 | 33.93816 | -118.40604 | 94 ft | 12 kts | 82° |
| 2026-04-25 05:01 | 33.93829 | -118.40491 | 97 ft | 14 kts | 83° |
| 2026-04-25 05:02 | 33.93840 | -118.40370 | 98 ft | 15 kts | 84° |
| 2026-04-25 05:02 | 33.93854 | -118.40242 | 97 ft | 16 kts | 82° |
| 2026-04-25 05:02 | 33.93869 | -118.40105 | 97 ft | 17 kts | 82° |
| 2026-04-25 05:02 | 33.93884 | -118.39959 | 98 ft | 18 kts | 84° |
| 2026-04-25 05:03 | 33.93899 | -118.39801 | 98 ft | 20 kts | 84° |
| 2026-04-25 05:03 | 33.93916 | -118.39630 | 95 ft | 21 kts | 83° |
| 2026-04-25 05:03 | 33.93935 | -118.39450 | 96 ft | 22 kts | 83° |
| 2026-04-25 05:03 | 33.93955 | -118.39256 | 95 ft | 24 kts | 83° |
| 2026-04-25 05:04 | 33.93975 | -118.39054 | 94 ft | 25 kts | 83° |
| 2026-04-25 05:04 | 33.93997 | -118.38846 | 94 ft | 26 kts | 83° |
| 2026-04-25 05:04 | 33.94019 | -118.38631 | 95 ft | 26 kts | 83° |
| 2026-04-25 05:04 | 33.94041 | -118.38415 | 98 ft | 24 kts | 83° |
| 2026-04-25 05:05 | 33.94061 | -118.38213 | 95 ft | 23 kts | 83° |
| 2026-04-25 05:05 | 33.94075 | -118.38077 | 93 ft | 9 kts | 83° |
| 2026-04-25 05:05 | 33.94078 | -118.38052 | 93 ft | 0 kts | 84° |
| 2026-04-25 05:06 | 33.94078 | -118.38051 | 93 ft | 1 kts | 84° |
| 2026-04-25 05:06 | 33.94076 | -118.38031 | 97 ft | 5 kts | 100° |
| 2026-04-25 05:06 | 33.94030 | -118.37994 | 94 ft | 10 kts | 166° |
| 2026-04-25 05:06 | 33.94013 | -118.37991 | 93 ft | 0 kts | 172° |
| 2026-04-25 05:07 | 33.94010 | -118.37992 | 95 ft | 0 kts | 177° |
| 2026-04-25 05:08 | 33.93993 | -118.37998 | 94 ft | 5 kts | 211° |
| 2026-04-25 05:08 | 33.93982 | -118.38041 | 96 ft | 6 kts | 263° |
| 2026-04-25 05:09 | 33.93980 | -118.38055 | 94 ft | 0 kts | 263° |
| 2026-04-25 05:13 | 33.93973 | -118.38125 | 94 ft | 35 kts | 263° |
| 2026-04-25 05:13 | 33.93909 | -118.38731 | 97 ft | 109 kts | 263° |
| 2026-04-25 05:14 | 33.93795 | -118.39876 | 106 ft | 163 kts | 262° |
| 2026-04-25 05:14 | 33.93662 | -118.41257 | 705 ft | 166 kts | 264° |
| 2026-04-25 05:14 | 33.93550 | -118.42653 | 1437 ft | 169 kts | 264° |
| 2026-04-25 05:15 | 33.93382 | -118.45477 | 2716 ft | 176 kts | 265° |
| 2026-04-25 05:15 | 33.93324 | -118.47067 | 2941 ft | 199 kts | 267° |
| 2026-04-25 05:15 | 33.93234 | -118.48779 | 3440 ft | 213 kts | 263° |
| 2026-04-25 05:15 | 33.93053 | -118.50599 | 4031 ft | 224 kts | 261° |
| 2026-04-25 05:16 | 33.92793 | -118.52463 | 4804 ft | 226 kts | 258° |
| 2026-04-25 05:16 | 33.92509 | -118.54334 | 5583 ft | 229 kts | 261° |
| 2026-04-25 05:16 | 33.92311 | -118.56264 | 6218 ft | 240 kts | 264° |
| 2026-04-25 05:16 | 33.92186 | -118.58326 | 6732 ft | 253 kts | 266° |
| 2026-04-25 05:17 | 33.92052 | -118.60511 | 7229 ft | 268 kts | 264° |
| 2026-04-25 05:17 | 33.91865 | -118.62757 | 7985 ft | 271 kts | 265° |
| 2026-04-25 05:17 | 33.91811 | -118.65007 | 8760 ft | 273 kts | 268° |
| 2026-04-25 05:17 | 33.91780 | -118.67333 | 9584 ft | 275 kts | 269° |
| 2026-04-25 05:18 | 33.91759 | -118.69621 | 10224 ft | 284 kts | 269° |
| 2026-04-25 05:18 | 33.91743 | -118.72093 | 10420 ft | 307 kts | 269° |
| 2026-04-25 05:18 | 33.91731 | -118.74729 | 10821 ft | 320 kts | 269° |
| 2026-04-25 05:18 | 33.91719 | -118.77427 | 11506 ft | 323 kts | 269° |
| 2026-04-25 05:19 | 33.91708 | -118.80136 | 12272 ft | 325 kts | 269° |
| 2026-04-25 05:19 | 33.91697 | -118.82857 | 13044 ft | 326 kts | 269° |
| 2026-04-25 05:19 | 33.91716 | -118.85590 | 13804 ft | 327 kts | 271° |
| 2026-04-25 05:19 | 33.91788 | -118.88329 | 14472 ft | 328 kts | 271° |
| 2026-04-25 05:20 | 33.91885 | -118.91076 | 15135 ft | 330 kts | 272° |
| 2026-04-25 05:20 | 33.91988 | -118.93842 | 15808 ft | 331 kts | 271° |
| 2026-04-25 05:20 | 33.92086 | -118.96614 | 16475 ft | 333 kts | 271° |
| 2026-04-25 05:20 | 33.92217 | -118.99405 | 17112 ft | 336 kts | 276° |
| 2026-04-25 05:21 | 33.92758 | -119.02159 | 17745 ft | 341 kts | 287° |
| 2026-04-25 05:21 | 33.93809 | -119.04740 | 18353 ft | 347 kts | 298° |
| 2026-04-25 05:21 | 33.95099 | -119.07204 | 18904 ft | 349 kts | 298° |
| 2026-04-25 05:21 | 33.96392 | -119.09693 | 19471 ft | 351 kts | 297° |
| 2026-04-25 05:22 | 33.97685 | -119.12198 | 20032 ft | 353 kts | 297° |
| 2026-04-25 05:22 | 33.98981 | -119.14715 | 20596 ft | 355 kts | 297° |
| 2026-04-25 05:22 | 34.00325 | -119.17217 | 21156 ft | 359 kts | 302° |
| 2026-04-25 05:22 | 34.02033 | -119.19454 | 21701 ft | 368 kts | 313° |
| 2026-04-25 05:23 | 34.04101 | -119.21325 | 22307 ft | 373 kts | 319° |
| 2026-04-25 05:23 | 34.06219 | -119.23127 | 22907 ft | 374 kts | 318° |
| 2026-04-25 05:23 | 34.08345 | -119.24946 | 23436 ft | 375 kts | 318° |
| 2026-04-25 05:23 | 34.10482 | -119.26781 | 23863 ft | 378 kts | 318° |
| 2026-04-25 05:24 | 34.12629 | -119.28627 | 24270 ft | 380 kts | 318° |
| 2026-04-25 05:24 | 34.14791 | -119.30490 | 24674 ft | 383 kts | 318° |
| 2026-04-25 05:24 | 34.16965 | -119.32365 | 25071 ft | 385 kts | 317° |
| 2026-04-25 05:24 | 34.19148 | -119.34249 | 25469 ft | 387 kts | 317° |
| 2026-04-25 05:25 | 34.21347 | -119.36148 | 25887 ft | 390 kts | 317° |
| 2026-04-25 05:25 | 34.23552 | -119.38053 | 26342 ft | 390 kts | 317° |
| 2026-04-25 05:25 | 34.25768 | -119.39967 | 26740 ft | 392 kts | 317° |
| 2026-04-25 05:25 | 34.27959 | -119.41861 | 27123 ft | 394 kts | 317° |
| 2026-04-25 05:26 | 34.30194 | -119.43793 | 27490 ft | 396 kts | 317° |
| 2026-04-25 05:26 | 34.32440 | -119.45732 | 27853 ft | 398 kts | 317° |
| 2026-04-25 05:26 | 34.34704 | -119.47688 | 28218 ft | 400 kts | 317° |
| 2026-04-25 05:26 | 34.36975 | -119.49654 | 28571 ft | 403 kts | 317° |
| 2026-04-25 05:27 | 34.39259 | -119.51636 | 28925 ft | 405 kts | 317° |
| 2026-04-25 05:27 | 34.41475 | -119.53721 | 29295 ft | 401 kts | 310° |
| 2026-04-25 05:27 | 34.43450 | -119.56088 | 29646 ft | 400 kts | 308° |
| 2026-04-25 05:27 | 34.45410 | -119.58498 | 29980 ft | 403 kts | 308° |
| 2026-04-25 05:28 | 34.47378 | -119.60926 | 30299 ft | 404 kts | 308° |
| 2026-04-25 05:28 | 34.49379 | -119.63396 | 30615 ft | 406 kts | 307° |
| 2026-04-25 05:28 | 34.51339 | -119.65815 | 30895 ft | 408 kts | 307° |
| 2026-04-25 05:28 | 34.53333 | -119.68274 | 31200 ft | 410 kts | 307° |
| 2026-04-25 05:29 | 34.55364 | -119.70780 | 31517 ft | 411 kts | 307° |
| 2026-04-25 05:29 | 34.57334 | -119.73211 | 31958 ft | 409 kts | 306° |
| 2026-04-25 05:29 | 34.59331 | -119.75673 | 32388 ft | 408 kts | 306° |
| 2026-04-25 05:29 | 34.61316 | -119.78118 | 32830 ft | 406 kts | 306° |
| 2026-04-25 05:30 | 34.63297 | -119.80558 | 33247 ft | 405 kts | 306° |
| 2026-04-25 05:30 | 34.65267 | -119.82992 | 33656 ft | 404 kts | 305° |
| 2026-04-25 05:30 | 34.67230 | -119.85424 | 34030 ft | 404 kts | 305° |
| 2026-04-25 05:30 | 34.69197 | -119.87864 | 34370 ft | 403 kts | 305° |
| 2026-04-25 05:31 | 34.71155 | -119.90294 | 34727 ft | 402 kts | 305° |
| 2026-04-25 05:31 | 34.73106 | -119.92715 | 35107 ft | 401 kts | 305° |
| 2026-04-25 05:31 | 34.75055 | -119.95134 | 35461 ft | 399 kts | 304° |
| 2026-04-25 05:31 | 34.76994 | -119.97543 | 35770 ft | 398 kts | 304° |
| 2026-04-25 05:32 | 34.78930 | -119.99950 | 35926 ft | 399 kts | 304° |
| 2026-04-25 05:32 | 34.82751 | -120.04699 | 35971 ft | 389 kts | 304° |
| 2026-04-25 05:33 | 34.86519 | -120.09397 | 35976 ft | 387 kts | 304° |
| 2026-04-25 05:33 | 34.90278 | -120.14094 | 36019 ft | 387 kts | 304° |
| 2026-04-25 05:34 | 34.94037 | -120.18800 | 35995 ft | 388 kts | 304° |
| 2026-04-25 05:34 | 34.97803 | -120.23513 | 35997 ft | 388 kts | 304° |
| 2026-04-25 05:35 | 35.01569 | -120.28231 | 36001 ft | 388 kts | 304° |
| 2026-04-25 05:35 | 35.05337 | -120.32958 | 36011 ft | 389 kts | 304° |
| 2026-04-25 05:36 | 35.09083 | -120.37664 | 36019 ft | 390 kts | 306° |
| 2026-04-25 05:36 | 35.13042 | -120.42242 | 36011 ft | 394 kts | 308° |
| 2026-04-25 05:37 | 35.17132 | -120.46707 | 35995 ft | 394 kts | 308° |
| 2026-04-25 05:37 | 35.21215 | -120.51194 | 35998 ft | 395 kts | 308° |
| 2026-04-25 05:38 | 35.25273 | -120.55736 | 36022 ft | 395 kts | 308° |
| 2026-04-25 05:38 | 35.29314 | -120.60306 | 36016 ft | 396 kts | 308° |
| 2026-04-25 05:39 | 35.33362 | -120.64888 | 36012 ft | 396 kts | 308° |
| 2026-04-25 05:39 | 35.37419 | -120.69462 | 36012 ft | 396 kts | 308° |
| 2026-04-25 05:40 | 35.41472 | -120.74038 | 36030 ft | 397 kts | 308° |
| 2026-04-25 05:40 | 35.45536 | -120.78627 | 36017 ft | 397 kts | 308° |
| 2026-04-25 05:41 | 35.49709 | -120.83090 | 36008 ft | 402 kts | 314° |
| 2026-04-25 05:41 | 35.54181 | -120.87225 | 36000 ft | 403 kts | 314° |
| 2026-04-25 05:42 | 35.58653 | -120.91362 | 35996 ft | 402 kts | 314° |
| 2026-04-25 05:42 | 35.63093 | -120.95490 | 35989 ft | 400 kts | 314° |
| 2026-04-25 05:43 | 35.67532 | -120.99633 | 35979 ft | 401 kts | 314° |
| 2026-04-25 05:43 | 35.72004 | -121.03796 | 35668 ft | 405 kts | 314° |
| 2026-04-25 05:43 | 35.74247 | -121.05882 | 35441 ft | 403 kts | 314° |
| 2026-04-25 05:44 | 35.76475 | -121.07959 | 35204 ft | 401 kts | 314° |
| 2026-04-25 05:44 | 35.78690 | -121.10024 | 34957 ft | 399 kts | 314° |
| 2026-04-25 05:44 | 35.80894 | -121.12084 | 34719 ft | 396 kts | 314° |
| 2026-04-25 05:44 | 35.83084 | -121.14133 | 34478 ft | 394 kts | 314° |
| 2026-04-25 05:45 | 35.84528 | -121.15488 | 34323 ft | 393 kts | 314° |
| 2026-04-25 05:45 | 35.86692 | -121.17522 | 34087 ft | 391 kts | 314° |
| 2026-04-25 05:45 | 35.88854 | -121.19550 | 33849 ft | 389 kts | 314° |
| 2026-04-25 05:45 | 35.91000 | -121.21564 | 33608 ft | 387 kts | 314° |
| 2026-04-25 05:46 | 35.93133 | -121.23567 | 33337 ft | 385 kts | 314° |
| 2026-04-25 05:46 | 35.95255 | -121.25560 | 33063 ft | 382 kts | 314° |
| 2026-04-25 05:46 | 35.97371 | -121.27543 | 32798 ft | 380 kts | 314° |
| 2026-04-25 05:46 | 35.99468 | -121.29510 | 32536 ft | 377 kts | 314° |
| 2026-04-25 05:47 | 36.01544 | -121.31464 | 32285 ft | 374 kts | 314° |
| 2026-04-25 05:47 | 36.03594 | -121.33396 | 31956 ft | 368 kts | 314° |
| 2026-04-25 05:47 | 36.05617 | -121.35307 | 31501 ft | 364 kts | 315° |
| 2026-04-25 05:47 | 36.07684 | -121.37125 | 31081 ft | 366 kts | 320° |
| 2026-04-25 05:48 | 36.09835 | -121.38792 | 30626 ft | 364 kts | 320° |
| 2026-04-25 05:48 | 36.11970 | -121.40453 | 30193 ft | 361 kts | 320° |
| 2026-04-25 05:48 | 36.14089 | -121.42106 | 29721 ft | 359 kts | 320° |
| 2026-04-25 05:48 | 36.16191 | -121.43747 | 29292 ft | 355 kts | 320° |
| 2026-04-25 05:49 | 36.18273 | -121.45370 | 28885 ft | 351 kts | 320° |
| 2026-04-25 05:49 | 36.20326 | -121.46976 | 28490 ft | 348 kts | 320° |
| 2026-04-25 05:49 | 36.22365 | -121.48574 | 28098 ft | 346 kts | 320° |
| 2026-04-25 05:49 | 36.24391 | -121.50161 | 27698 ft | 343 kts | 320° |
| 2026-04-25 05:50 | 36.26395 | -121.51729 | 27324 ft | 339 kts | 321° |
| 2026-04-25 05:50 | 36.28383 | -121.53283 | 26953 ft | 336 kts | 320° |
| 2026-04-25 05:50 | 36.30350 | -121.54824 | 26592 ft | 333 kts | 321° |
| 2026-04-25 05:50 | 36.32297 | -121.56348 | 26218 ft | 330 kts | 321° |
| 2026-04-25 05:51 | 36.34203 | -121.57841 | 25851 ft | 327 kts | 321° |
| 2026-04-25 05:51 | 36.36112 | -121.59343 | 25474 ft | 324 kts | 321° |
| 2026-04-25 05:51 | 36.38009 | -121.60838 | 25102 ft | 322 kts | 321° |
| 2026-04-25 05:51 | 36.39890 | -121.62323 | 24729 ft | 320 kts | 321° |
| 2026-04-25 05:52 | 36.41758 | -121.63799 | 24367 ft | 318 kts | 321° |
| 2026-04-25 05:52 | 36.43623 | -121.65269 | 23991 ft | 317 kts | 322° |
| 2026-04-25 05:52 | 36.45484 | -121.66732 | 23596 ft | 316 kts | 322° |
| 2026-04-25 05:52 | 36.47334 | -121.68186 | 23178 ft | 314 kts | 322° |
| 2026-04-25 05:53 | 36.49191 | -121.69647 | 22798 ft | 325 kts | 322° |
| 2026-04-25 05:53 | 36.51193 | -121.71240 | 22377 ft | 353 kts | 322° |
| 2026-04-25 05:53 | 36.53269 | -121.72892 | 21917 ft | 354 kts | 323° |
| 2026-04-25 05:53 | 36.55343 | -121.74534 | 21512 ft | 353 kts | 323° |
| 2026-04-25 05:54 | 36.57419 | -121.76167 | 21057 ft | 352 kts | 323° |
| 2026-04-25 05:54 | 36.59486 | -121.77794 | 20648 ft | 351 kts | 323° |
| 2026-04-25 05:54 | 36.63598 | -121.81042 | 19787 ft | 349 kts | 324° |
| 2026-04-25 05:55 | 36.65644 | -121.82664 | 19402 ft | 348 kts | 324° |
| 2026-04-25 05:55 | 36.67683 | -121.84282 | 18987 ft | 347 kts | 324° |
| 2026-04-25 05:55 | 36.69719 | -121.85898 | 18569 ft | 346 kts | 324° |
| 2026-04-25 05:55 | 36.71744 | -121.87506 | 18134 ft | 345 kts | 324° |
| 2026-04-25 05:56 | 36.73829 | -121.88980 | 17703 ft | 345 kts | 333° |
| 2026-04-25 05:56 | 36.76097 | -121.89969 | 17295 ft | 347 kts | 344° |
| 2026-04-25 05:56 | 36.78452 | -121.90613 | 16867 ft | 345 kts | 346° |
| 2026-04-25 05:56 | 36.80784 | -121.91257 | 16457 ft | 342 kts | 346° |
| 2026-04-25 05:57 | 36.83102 | -121.91904 | 16048 ft | 340 kts | 346° |
| 2026-04-25 05:57 | 36.85395 | -121.92549 | 15633 ft | 337 kts | 346° |
| 2026-04-25 05:57 | 36.87672 | -121.93191 | 15260 ft | 333 kts | 346° |
| 2026-04-25 05:57 | 36.89885 | -121.93812 | 15109 ft | 321 kts | 346° |
| 2026-04-25 05:58 | 36.92062 | -121.94423 | 14702 ft | 319 kts | 347° |
| 2026-04-25 05:58 | 36.94185 | -121.95021 | 14255 ft | 314 kts | 348° |
| 2026-04-25 05:58 | 36.96311 | -121.95671 | 13702 ft | 315 kts | 346° |
| 2026-04-25 05:58 | 36.98411 | -121.96439 | 13298 ft | 313 kts | 344° |
| 2026-04-25 05:59 | 37.00477 | -121.97256 | 12917 ft | 310 kts | 343° |
| 2026-04-25 05:59 | 37.02512 | -121.98083 | 12551 ft | 306 kts | 343° |
| 2026-04-25 05:59 | 37.04529 | -121.98906 | 12185 ft | 304 kts | 343° |
| 2026-04-25 05:59 | 37.06536 | -121.99712 | 11804 ft | 301 kts | 343° |
| 2026-04-25 06:00 | 37.08524 | -122.00499 | 11454 ft | 299 kts | 343° |
| 2026-04-25 06:00 | 37.10503 | -122.01278 | 11094 ft | 297 kts | 343° |
| 2026-04-25 06:00 | 37.12465 | -122.02045 | 10739 ft | 295 kts | 343° |
| 2026-04-25 06:00 | 37.14419 | -122.02809 | 10379 ft | 293 kts | 342° |
| 2026-04-25 06:01 | 37.16360 | -122.03569 | 10025 ft | 292 kts | 342° |
| 2026-04-25 06:01 | 37.18292 | -122.04323 | 9659 ft | 290 kts | 341° |
| 2026-04-25 06:01 | 37.20209 | -122.05072 | 9430 ft | 284 kts | 342° |
| 2026-04-25 06:01 | 37.22071 | -122.05802 | 9155 ft | 279 kts | 341° |
| 2026-04-25 06:02 | 37.23924 | -122.06530 | 8716 ft | 281 kts | 341° |
| 2026-04-25 06:02 | 37.25793 | -122.07263 | 8367 ft | 279 kts | 341° |
| 2026-04-25 06:02 | 37.27627 | -122.07980 | 8056 ft | 276 kts | 341° |
| 2026-04-25 06:02 | 37.29464 | -122.08702 | 7715 ft | 274 kts | 341° |
| 2026-04-25 06:03 | 37.31289 | -122.09423 | 7326 ft | 274 kts | 340° |
| 2026-04-25 06:03 | 37.33095 | -122.10138 | 7043 ft | 270 kts | 341° |
| 2026-04-25 06:03 | 37.34880 | -122.10841 | 6531 ft | 266 kts | 341° |
| 2026-04-25 06:03 | 37.36622 | -122.11526 | 6146 ft | 266 kts | 341° |
| 2026-04-25 06:04 | 37.38386 | -122.12207 | 5791 ft | 264 kts | 342° |
| 2026-04-25 06:04 | 37.40137 | -122.12826 | 5487 ft | 260 kts | 343° |
| 2026-04-25 06:04 | 37.41897 | -122.13420 | 5182 ft | 258 kts | 343° |
| 2026-04-25 06:04 | 37.43607 | -122.13994 | 4878 ft | 257 kts | 344° |
| 2026-04-25 06:05 | 37.45326 | -122.14573 | 4563 ft | 255 kts | 343° |
| 2026-04-25 06:05 | 37.47018 | -122.15133 | 4274 ft | 248 kts | 343° |
| 2026-04-25 06:05 | 37.48645 | -122.15664 | 3960 ft | 243 kts | 343° |
| 2026-04-25 06:05 | 37.50269 | -122.16191 | 3648 ft | 237 kts | 343° |
| 2026-04-25 06:06 | 37.51837 | -122.16707 | 3411 ft | 231 kts | 342° |
| 2026-04-25 06:06 | 37.53221 | -122.17533 | 3281 ft | 211 kts | 321° |
| 2026-04-25 06:06 | 37.54191 | -122.18772 | 3056 ft | 191 kts | 301° |
| 2026-04-25 06:06 | 37.54807 | -122.20173 | 2829 ft | 179 kts | 295° |
| 2026-04-25 06:07 | 37.55379 | -122.21522 | 2589 ft | 167 kts | 294° |
| 2026-04-25 06:07 | 37.55900 | -122.22754 | 2384 ft | 154 kts | 295° |
| 2026-04-25 06:07 | 37.56384 | -122.23901 | 2187 ft | 142 kts | 295° |
| 2026-04-25 06:07 | 37.56838 | -122.24978 | 1989 ft | 137 kts | 295° |
| 2026-04-25 06:08 | 37.57278 | -122.26024 | 1797 ft | 134 kts | 295° |
| 2026-04-25 06:08 | 37.57715 | -122.27063 | 1614 ft | 133 kts | 295° |
| 2026-04-25 06:08 | 37.58147 | -122.28087 | 1433 ft | 133 kts | 295° |
| 2026-04-25 06:08 | 37.58579 | -122.29116 | 1258 ft | 132 kts | 295° |
| 2026-04-25 06:09 | 37.59015 | -122.30150 | 1072 ft | 133 kts | 295° |
| 2026-04-25 06:09 | 37.59441 | -122.31165 | 886 ft | 133 kts | 295° |
| 2026-04-25 06:09 | 37.59872 | -122.32188 | 700 ft | 131 kts | 294° |
| 2026-04-25 06:09 | 37.60301 | -122.33208 | 525 ft | 131 kts | 295° |
| 2026-04-25 06:10 | 37.60728 | -122.34224 | 354 ft | 131 kts | 295° |
| 2026-04-25 06:10 | 37.61153 | -122.35237 | 183 ft | 131 kts | 295° |
| 2026-04-25 06:10 | 37.61573 | -122.36235 | 30 ft | 124 kts | 296° |
| 2026-04-25 06:10 | 37.61916 | -122.37060 | 24 ft | 83 kts | 298° |
| 2026-04-25 06:11 | 37.62106 | -122.37508 | 22 ft | 39 kts | 298° |
| 2026-04-25 06:11 | 37.62140 | -122.37681 | 24 ft | 13 kts | 249° |
| 2026-04-25 06:11 | 37.62098 | -122.37750 | 22 ft | 0 kts | 227° |
| 2026-04-25 06:11 | 37.62096 | -122.37752 | 24 ft | 0 kts | 227° |
| 2026-04-25 06:12 | 37.62090 | -122.37761 | 23 ft | 2 kts | 227° |
| 2026-04-25 06:13 | 37.62073 | -122.37783 | 22 ft | 5 kts | 227° |
| 2026-04-25 06:13 | 37.62046 | -122.37820 | 23 ft | 7 kts | 228° |
| 2026-04-25 06:13 | 37.62009 | -122.37873 | 22 ft | 9 kts | 227° |
| 2026-04-25 06:14 | 37.61964 | -122.37941 | 22 ft | 0 kts | 233° |
| 2026-04-25 06:14 | 37.61963 | -122.37942 | 22 ft | 1 kts | 229° |
| 2026-04-25 06:15 | 37.61952 | -122.37953 | 22 ft | 3 kts | 212° |
| 2026-04-25 06:15 | 37.61926 | -122.37955 | 22 ft | 5 kts | 171° |
| 2026-04-25 06:15 | 37.61881 | -122.37921 | 23 ft | 10 kts | 147° |
| 2026-04-25 06:15 | 37.61836 | -122.37881 | 23 ft | 8 kts | 135° |
| 2026-04-25 06:16 | 37.61823 | -122.37853 | 22 ft | 7 kts | 111° |
| 2026-04-25 06:16 | 37.61799 | -122.37770 | 22 ft | 8 kts | 112° |
| 2026-04-25 06:16 | 37.61776 | -122.37700 | 22 ft | 10 kts | 111° |
| 2026-04-25 06:16 | 37.61750 | -122.37613 | 22 ft | 12 kts | 110° |
| 2026-04-25 06:17 | 37.61724 | -122.37531 | 22 ft | 10 kts | 112° |
| 2026-04-25 06:17 | 37.61679 | -122.37457 | 22 ft | 11 kts | 157° |
| 2026-04-25 06:17 | 37.61597 | -122.37469 | 22 ft | 13 kts | 202° |
| 2026-04-25 06:17 | 37.61503 | -122.37532 | 24 ft | 17 kts | 207° |
| 2026-04-25 06:18 | 37.61382 | -122.37613 | 23 ft | 22 kts | 208° |
| 2026-04-25 06:18 | 37.61295 | -122.37742 | 22 ft | 15 kts | 260° |
| 2026-04-25 06:18 | 37.61301 | -122.37836 | 22 ft | 0 kts | 295° |
| 2026-04-25 06:19 | 37.61301 | -122.37837 | 22 ft | 1 kts | 295° |
| 2026-04-25 06:19 | 37.61311 | -122.37864 | 23 ft | 7 kts | 296° |
| 2026-04-25 06:19 | 37.61354 | -122.37966 | 24 ft | 17 kts | 298° |
| 2026-04-25 06:19 | 37.61401 | -122.38081 | 22 ft | 14 kts | 292° |
| 2026-04-25 06:20 | 37.61353 | -122.38172 | 23 ft | 14 kts | 205° |
| 2026-04-25 06:20 | 37.61260 | -122.38233 | 22 ft | 16 kts | 209° |
| 2026-04-25 06:20 | 37.61162 | -122.38300 | 22 ft | 16 kts | 207° |
| 2026-04-25 06:20 | 37.61098 | -122.38387 | 22 ft | 12 kts | 265° |
| 2026-04-25 06:21 | 37.61121 | -122.38460 | 22 ft | 5 kts | 301° |
| 2026-04-25 06:21 | 37.61126 | -122.38470 | 31 ft | 2 kts | 302° |
| 2026-04-25 06:21 | 37.61131 | -122.38480 | 23 ft | 1 kts | 300° |